createdAt,value
2023-07-28T00:00:37.867Z,98477.00
2023-07-28T00:01:37.913Z,98474.00
2023-07-28T00:02:37.972Z,98470.00
2023-07-28T00:03:37.938Z,98470.00
2023-07-28T00:04:37.903Z,98466.00
2023-07-28T00:05:37.938Z,98467.00
2023-07-28T00:06:38.151Z,98471.00
2023-07-28T00:07:37.914Z,98471.00
2023-07-28T00:08:37.903Z,98471.00
2023-07-28T00:09:37.890Z,98473.00
2023-07-28T00:10:37.912Z,98472.00
2023-07-28T00:11:37.956Z,98466.00
2023-07-28T00:12:37.940Z,98462.00
2023-07-28T00:13:37.946Z,98461.00
2023-07-28T00:14:37.986Z,98463.00
2023-07-28T00:15:37.967Z,98461.00
2023-07-28T00:16:38.376Z,98462.00
2023-07-28T00:17:37.995Z,98452.00
2023-07-28T00:18:38.009Z,98458.00
2023-07-28T00:19:37.985Z,98455.00
2023-07-28T00:20:38.020Z,98452.00
2023-07-28T00:21:38.000Z,98452.00
2023-07-28T00:22:38.028Z,98450.00
2023-07-28T00:23:38.045Z,98451.00
2023-07-28T00:24:38.086Z,98453.00
2023-07-28T00:25:38.067Z,98449.00
2023-07-28T00:26:38.096Z,98448.00
2023-07-28T00:27:38.112Z,98448.00
2023-07-28T00:28:38.149Z,98445.00
2023-07-28T00:29:38.130Z,98446.00
2023-07-28T00:30:38.164Z,98447.00
2023-07-28T00:31:38.121Z,98444.00
2023-07-28T00:32:38.181Z,98446.00
2023-07-28T00:33:38.201Z,98443.00
2023-07-28T00:34:38.194Z,98442.00
2023-07-28T00:35:38.157Z,98442.00
2023-07-28T00:36:38.331Z,98441.00
2023-07-28T00:37:38.179Z,98438.00
2023-07-28T00:38:38.217Z,98436.00
2023-07-28T00:39:38.233Z,98439.00
2023-07-28T00:40:38.265Z,98436.00
2023-07-28T00:41:38.283Z,98437.00
2023-07-28T00:42:38.305Z,98430.00
2023-07-28T00:43:38.338Z,98432.00
2023-07-28T00:44:38.362Z,98434.00
2023-07-28T00:45:38.405Z,98434.00
2023-07-28T00:46:38.373Z,98439.00
2023-07-28T00:47:38.418Z,98436.00
2023-07-28T00:48:38.396Z,98432.00
2023-07-28T00:49:38.429Z,98434.00
2023-07-28T00:50:38.469Z,98433.00
2023-07-28T00:51:38.432Z,98438.00
2023-07-28T00:52:38.464Z,98440.00
2023-07-28T00:53:38.488Z,98436.00
2023-07-28T00:54:38.480Z,98434.00
2023-07-28T00:55:38.450Z,98435.00
2023-07-28T00:56:38.456Z,98436.00
2023-07-28T00:57:38.474Z,98434.00
2023-07-28T00:58:38.507Z,98438.00
2023-07-28T00:59:38.487Z,98438.00
2023-07-28T01:00:38.517Z,98434.00
2023-07-28T01:01:38.588Z,98438.00
2023-07-28T01:02:38.621Z,98436.00
2023-07-28T01:03:38.577Z,98433.00
2023-07-28T01:04:38.626Z,98429.00
2023-07-28T01:05:38.609Z,98433.00
2023-07-28T01:06:38.654Z,98430.00
2023-07-28T01:07:38.621Z,98435.00
2023-07-28T01:08:38.658Z,98433.00
2023-07-28T01:09:38.629Z,98437.00
2023-07-28T01:10:38.655Z,98431.00
2023-07-28T01:11:38.683Z,98428.00
2023-07-28T01:12:38.774Z,98434.00
2023-07-28T01:13:38.735Z,98435.00
2023-07-28T01:14:38.744Z,98435.00
2023-07-28T01:15:38.839Z,98433.00
2023-07-28T01:16:38.793Z,98433.00
2023-07-28T01:17:38.826Z,98432.00
2023-07-28T01:18:38.825Z,98434.00
2023-07-28T01:19:38.916Z,98432.00
2023-07-28T01:20:38.865Z,98432.00
2023-07-28T01:21:38.893Z,98431.00
2023-07-28T01:22:38.947Z,98432.00
2023-07-28T01:23:38.935Z,98434.00
2023-07-28T01:24:38.926Z,98433.00
2023-07-28T01:25:38.976Z,98432.00
2023-07-28T01:26:39.294Z,98430.00
2023-07-28T01:27:38.947Z,98433.00
2023-07-28T01:28:38.956Z,98428.00
2023-07-28T01:29:38.995Z,98429.00
2023-07-28T01:30:39.039Z,98432.00
2023-07-28T01:31:39.067Z,98431.00
2023-07-28T01:32:39.033Z,98430.00
2023-07-28T01:33:39.007Z,98425.00
2023-07-28T01:34:39.023Z,98428.00
2023-07-28T01:35:38.996Z,98421.00
2023-07-28T01:36:39.014Z,98425.00
2023-07-28T01:37:39.031Z,98430.00
2023-07-28T01:38:39.071Z,98427.00
2023-07-28T01:39:39.047Z,98432.00
2023-07-28T01:40:39.032Z,98433.00
2023-07-28T01:41:39.032Z,98431.00
2023-07-28T01:42:39.070Z,98428.00
2023-07-28T01:43:39.047Z,98430.00
2023-07-28T01:44:39.075Z,98428.00
2023-07-28T01:45:39.067Z,98423.00
2023-07-28T01:46:39.058Z,98428.00
2023-07-28T01:47:39.117Z,98431.00
2023-07-28T01:48:39.101Z,98427.00
2023-07-28T01:49:39.143Z,98424.00
2023-07-28T01:50:39.119Z,98430.00
2023-07-28T01:51:39.147Z,98426.00
2023-07-28T01:52:39.164Z,98429.00
2023-07-28T01:53:39.195Z,98425.00
2023-07-28T01:54:39.243Z,98423.00
2023-07-28T01:55:39.230Z,98428.00
2023-07-28T01:56:39.239Z,98426.00
2023-07-28T01:57:39.251Z,98429.00
2023-07-28T01:58:39.270Z,98426.00
2023-07-28T01:59:39.280Z,98430.00
2023-07-28T02:00:39.289Z,98429.00
2023-07-28T02:01:39.357Z,98431.00
2023-07-28T02:02:39.330Z,98436.00
2023-07-28T02:03:39.321Z,98433.00
2023-07-28T02:04:39.444Z,98435.00
2023-07-28T02:05:39.362Z,98433.00
2023-07-28T02:06:39.394Z,98433.00
2023-07-28T02:07:39.424Z,98430.00
2023-07-28T02:08:39.440Z,98431.00
2023-07-28T02:09:39.462Z,98436.00
2023-07-28T02:10:39.510Z,98437.00
2023-07-28T02:11:39.486Z,98432.00
2023-07-28T02:12:39.501Z,98437.00
2023-07-28T02:13:39.521Z,98438.00
2023-07-28T02:14:39.542Z,98433.00
2023-07-28T02:15:41.306Z,98432.00
2023-07-28T02:16:39.582Z,98425.00
2023-07-28T02:17:39.566Z,98424.00
2023-07-28T02:18:39.568Z,98422.00
2023-07-28T02:19:39.580Z,98422.00
2023-07-28T02:20:39.593Z,98426.00
2023-07-28T02:21:39.599Z,98422.00
2023-07-28T02:22:39.630Z,98427.00
2023-07-28T02:23:39.661Z,98427.00
2023-07-28T02:24:39.651Z,98429.00
2023-07-28T02:25:39.636Z,98428.00
2023-07-28T02:26:39.645Z,98428.00
2023-07-28T02:27:39.600Z,98429.00
2023-07-28T02:28:39.633Z,98425.00
2023-07-28T02:29:39.656Z,98424.00
2023-07-28T02:30:39.703Z,98424.00
2023-07-28T02:31:39.666Z,98423.00
2023-07-28T02:32:39.715Z,98421.00
2023-07-28T02:33:39.693Z,98419.00
2023-07-28T02:34:39.718Z,98419.00
2023-07-28T02:35:39.695Z,98422.00
2023-07-28T02:36:39.713Z,98421.00
2023-07-28T02:37:39.733Z,98423.00
2023-07-28T02:38:39.757Z,98423.00
2023-07-28T02:39:39.784Z,98425.00
2023-07-28T02:40:39.820Z,98422.00
2023-07-28T02:41:39.829Z,98424.00
2023-07-28T02:42:39.857Z,98424.00
2023-07-28T02:43:39.826Z,98426.00
2023-07-28T02:44:39.856Z,98424.00
2023-07-28T02:45:39.899Z,98424.00
2023-07-28T02:46:39.955Z,98428.00
2023-07-28T02:47:39.903Z,98430.00
2023-07-28T02:48:39.881Z,98432.00
2023-07-28T02:49:39.904Z,98433.00
2023-07-28T02:50:39.927Z,98430.00
2023-07-28T02:51:39.948Z,98431.00
2023-07-28T02:52:39.977Z,98431.00
2023-07-28T02:53:40.001Z,98432.00
2023-07-28T02:54:40.016Z,98428.00
2023-07-28T02:55:39.996Z,98427.00
2023-07-28T02:56:40.055Z,98426.00
2023-07-28T02:57:40.028Z,98423.00
2023-07-28T02:58:40.064Z,98424.00
2023-07-28T02:59:40.008Z,98426.00
2023-07-28T03:00:39.984Z,98425.00
2023-07-28T03:01:40.043Z,98425.00
2023-07-28T03:02:40.113Z,98422.00
2023-07-28T03:03:40.069Z,98429.00
2023-07-28T03:04:40.045Z,98431.00
2023-07-28T03:05:40.068Z,98432.00
2023-07-28T03:06:40.083Z,98436.00
2023-07-28T03:07:40.106Z,98433.00
2023-07-28T03:08:40.150Z,98437.00
2023-07-28T03:09:40.131Z,98439.00
2023-07-28T03:10:40.114Z,98437.00
2023-07-28T03:11:40.144Z,98439.00
2023-07-28T03:12:40.169Z,98440.00
2023-07-28T03:13:40.160Z,98440.00
2023-07-28T03:14:40.209Z,98438.00
2023-07-28T03:15:40.174Z,98440.00
2023-07-28T03:16:40.215Z,98437.00
2023-07-28T03:17:40.251Z,98436.00
2023-07-28T03:18:40.200Z,98435.00
2023-07-28T03:19:40.220Z,98436.00
2023-07-28T03:20:40.256Z,98433.00
2023-07-28T03:21:40.536Z,98436.00
2023-07-28T03:22:40.251Z,98431.00
2023-07-28T03:23:40.265Z,98434.00
2023-07-28T03:24:40.305Z,98437.00
2023-07-28T03:25:40.312Z,98431.00
2023-07-28T03:26:40.333Z,98438.00
2023-07-28T03:27:40.399Z,98434.00
2023-07-28T03:28:40.390Z,98436.00
2023-07-28T03:29:40.414Z,98436.00
2023-07-28T03:30:40.498Z,98436.00
2023-07-28T03:31:40.524Z,98440.00
2023-07-28T03:32:40.457Z,98442.00
2023-07-28T03:33:40.424Z,98443.00
2023-07-28T03:34:40.438Z,98444.00
2023-07-28T03:35:40.425Z,98445.00
2023-07-28T03:36:40.465Z,98445.00
2023-07-28T03:37:40.500Z,98448.00
2023-07-28T03:38:40.497Z,98453.00
2023-07-28T03:39:40.469Z,98455.00
2023-07-28T03:40:40.493Z,98458.00
2023-07-28T03:41:40.519Z,98459.00
2023-07-28T03:42:40.588Z,98456.00
2023-07-28T03:43:40.575Z,98454.00
2023-07-28T03:44:40.569Z,98457.00
2023-07-28T03:45:40.614Z,98456.00
2023-07-28T03:46:40.680Z,98459.00
2023-07-28T03:47:40.672Z,98458.00
2023-07-28T03:48:40.607Z,98459.00
2023-07-28T03:49:40.627Z,98458.00
2023-07-28T03:50:40.659Z,98461.00
2023-07-28T03:51:40.648Z,98455.00
2023-07-28T03:52:40.666Z,98453.00
2023-07-28T03:53:40.656Z,98455.00
2023-07-28T03:54:40.674Z,98449.00
2023-07-28T03:55:40.695Z,98447.00
2023-07-28T03:56:40.719Z,98448.00
2023-07-28T03:57:40.754Z,98446.00
2023-07-28T03:58:40.730Z,98444.00
2023-07-28T03:59:40.770Z,98442.00
2023-07-28T04:00:40.779Z,98439.00
2023-07-28T04:01:40.889Z,98440.00
2023-07-28T04:02:40.884Z,98438.00
2023-07-28T04:03:40.826Z,98437.00
2023-07-28T04:04:40.887Z,98439.00
2023-07-28T04:05:40.871Z,98437.00
2023-07-28T04:06:40.913Z,98435.00
2023-07-28T04:07:40.894Z,98436.00
2023-07-28T04:08:40.930Z,98437.00
2023-07-28T04:09:40.967Z,98439.00
2023-07-28T04:10:40.991Z,98437.00
2023-07-28T04:11:41.019Z,98439.00
2023-07-28T04:12:41.019Z,98433.00
2023-07-28T04:13:41.006Z,98440.00
2023-07-28T04:14:41.066Z,98444.00
2023-07-28T04:15:41.057Z,98446.00
2023-07-28T04:16:41.070Z,98446.00
2023-07-28T04:17:41.153Z,98436.00
2023-07-28T04:18:41.140Z,98438.00
2023-07-28T04:19:41.120Z,98440.00
2023-07-28T04:20:41.140Z,98446.00
2023-07-28T04:21:42.090Z,98444.00
2023-07-28T04:22:41.182Z,98448.00
2023-07-28T04:23:41.216Z,98444.00
2023-07-28T04:24:41.228Z,98441.00
2023-07-28T04:25:41.233Z,98453.00
2023-07-28T04:26:41.212Z,98454.00
2023-07-28T04:27:41.249Z,98457.00
2023-07-28T04:28:41.314Z,98454.00
2023-07-28T04:29:41.296Z,98455.00
2023-07-28T04:30:41.325Z,98456.00
2023-07-28T04:31:41.395Z,98453.00
2023-07-28T04:32:41.485Z,98449.00
2023-07-28T04:33:41.371Z,98456.00
2023-07-28T04:34:41.431Z,98455.00
2023-07-28T04:35:41.415Z,98456.00
2023-07-28T04:36:41.407Z,98452.00
2023-07-28T04:37:41.451Z,98448.00
2023-07-28T04:38:41.456Z,98451.00
2023-07-28T04:39:41.483Z,98453.00
2023-07-28T04:40:41.467Z,98454.00
2023-07-28T04:41:41.502Z,98456.00
2023-07-28T04:42:41.494Z,98458.00
2023-07-28T04:43:41.491Z,98458.00
2023-07-28T04:44:41.522Z,98455.00
2023-07-28T04:45:41.588Z,98461.00
2023-07-28T04:46:41.549Z,98460.00
2023-07-28T04:47:41.599Z,98460.00
2023-07-28T04:48:41.608Z,98460.00
2023-07-28T04:49:41.597Z,98460.00
2023-07-28T04:50:41.666Z,98459.00
2023-07-28T04:51:41.633Z,98458.00
2023-07-28T04:52:41.618Z,98458.00
2023-07-28T04:53:41.604Z,98462.00
2023-07-28T04:54:41.629Z,98453.00
2023-07-28T04:55:41.658Z,98453.00
2023-07-28T04:56:41.644Z,98454.00
2023-07-28T04:57:41.681Z,98451.00
2023-07-28T04:58:41.692Z,98453.00
2023-07-28T04:59:41.714Z,98454.00
2023-07-28T05:02:07.813Z,98458.00
2023-07-28T05:03:07.702Z,98456.00
2023-07-28T05:04:07.786Z,98459.00
2023-07-28T05:05:07.732Z,98461.00
2023-07-28T05:06:07.781Z,98464.00
2023-07-28T05:07:07.775Z,98467.00
2023-07-28T05:08:07.800Z,98466.00
2023-07-28T05:09:07.825Z,98467.00
2023-07-28T05:10:07.847Z,98461.00
2023-07-28T05:11:07.890Z,98464.00
2023-07-28T05:12:07.875Z,98468.00
2023-07-28T05:13:07.900Z,98472.00
2023-07-28T05:14:07.923Z,98469.00
2023-07-28T05:15:07.952Z,98475.00
2023-07-28T05:16:08.024Z,98471.00
2023-07-28T05:17:08.077Z,98475.00
2023-07-28T05:18:08.022Z,98475.00
2023-07-28T05:19:08.032Z,98476.00
2023-07-28T05:20:08.034Z,98474.00
2023-07-28T05:21:08.072Z,98473.00
2023-07-28T05:22:08.090Z,98475.00
2023-07-28T05:23:08.084Z,98479.00
2023-07-28T05:24:08.116Z,98484.00
2023-07-28T05:25:08.139Z,98483.00
2023-07-28T05:26:08.154Z,98481.00
2023-07-28T05:27:08.155Z,98486.00
2023-07-28T05:28:08.202Z,98491.00
2023-07-28T05:29:08.147Z,98488.00
2023-07-28T05:30:08.142Z,98487.00
2023-07-28T05:31:08.149Z,98493.00
2023-07-28T05:32:08.148Z,98486.00
2023-07-28T05:33:08.182Z,98488.00
2023-07-28T05:34:08.212Z,98496.00
2023-07-28T05:35:08.195Z,98493.00
2023-07-28T05:36:08.227Z,98493.00
2023-07-28T05:37:08.261Z,98491.00
2023-07-28T05:38:08.317Z,98493.00
2023-07-28T05:39:08.302Z,98491.00
2023-07-28T05:40:08.305Z,98494.00
2023-07-28T05:41:08.303Z,98495.00
2023-07-28T05:42:08.300Z,98496.00
2023-07-28T05:43:08.582Z,98498.00
2023-07-28T05:44:08.300Z,98497.00
2023-07-28T05:45:08.373Z,98500.00
2023-07-28T05:46:08.331Z,98498.00
2023-07-28T05:47:08.349Z,98501.00
2023-07-28T05:48:08.451Z,98504.00
2023-07-28T05:49:08.366Z,98506.00
2023-07-28T05:50:08.350Z,98507.00
2023-07-28T05:51:08.382Z,98508.00
2023-07-28T05:52:08.413Z,98509.00
2023-07-28T05:53:08.448Z,98501.00
2023-07-28T05:54:08.484Z,98510.00
2023-07-28T05:55:08.446Z,98513.00
2023-07-28T05:56:08.442Z,98510.00
2023-07-28T05:57:08.473Z,98510.00
2023-07-28T05:58:08.505Z,98519.00
2023-07-28T05:59:08.493Z,98514.00
2023-07-28T06:00:08.532Z,98513.00
2023-07-28T06:01:08.600Z,98511.00
2023-07-28T06:02:08.583Z,98508.00
2023-07-28T06:03:08.690Z,98506.00
2023-07-28T06:04:08.611Z,98504.00
2023-07-28T06:05:08.636Z,98507.00
2023-07-28T06:06:08.665Z,98503.00
2023-07-28T06:07:08.710Z,98506.00
2023-07-28T06:08:08.703Z,98499.00
2023-07-28T06:09:08.726Z,98499.00
2023-07-28T06:10:10.637Z,98498.00
2023-07-28T06:11:08.750Z,98501.00
2023-07-28T06:12:08.782Z,98499.00
2023-07-28T06:13:08.766Z,98502.00
2023-07-28T06:14:08.796Z,98498.00
2023-07-28T06:15:08.838Z,98503.00
2023-07-28T06:16:08.850Z,98502.00
2023-07-28T06:17:08.863Z,98501.00
2023-07-28T06:18:08.897Z,98501.00
2023-07-28T06:19:08.920Z,98501.00
2023-07-28T06:20:08.966Z,98501.00
2023-07-28T06:21:08.945Z,98504.00
2023-07-28T06:22:08.938Z,98504.00
2023-07-28T06:23:08.969Z,98506.00
2023-07-28T06:24:08.978Z,98501.00
2023-07-28T06:25:09.012Z,98503.00
2023-07-28T06:26:09.082Z,98495.00
2023-07-28T06:27:09.088Z,98497.00
2023-07-28T06:28:09.135Z,98491.00
2023-07-28T06:29:09.143Z,98504.00
2023-07-28T06:30:09.099Z,98503.00
2023-07-28T06:31:09.158Z,98501.00
2023-07-28T06:32:09.143Z,98509.00
2023-07-28T06:33:09.165Z,98503.00
2023-07-28T06:34:09.198Z,98506.00
2023-07-28T06:35:09.182Z,98504.00
2023-07-28T06:36:09.235Z,98506.00
2023-07-28T06:37:09.235Z,98507.00
2023-07-28T06:38:09.262Z,98511.00
2023-07-28T06:39:09.293Z,98510.00
2023-07-28T06:40:09.313Z,98511.00
2023-07-28T06:41:09.350Z,98515.00
2023-07-28T06:42:09.398Z,98517.00
2023-07-28T06:43:09.381Z,98514.00
2023-07-28T06:44:09.512Z,98513.00
2023-07-28T06:45:09.409Z,98514.00
2023-07-28T06:46:09.407Z,98513.00
2023-07-28T06:47:09.410Z,98520.00
2023-07-28T06:48:09.402Z,98520.00
2023-07-28T06:49:09.449Z,98519.00
2023-07-28T06:50:09.456Z,98523.00
2023-07-28T06:51:09.450Z,98530.00
2023-07-28T06:52:09.462Z,98525.00
2023-07-28T06:53:09.502Z,98526.00
2023-07-28T06:54:09.492Z,98525.00
2023-07-28T06:55:09.500Z,98527.00
2023-07-28T06:56:09.473Z,98527.00
2023-07-28T06:57:09.513Z,98524.00
2023-07-28T06:58:09.522Z,98525.00
2023-07-28T06:59:15.221Z,98532.00
2023-07-28T07:00:09.513Z,98533.00
2023-07-28T07:01:09.574Z,98532.00
2023-07-28T07:02:09.540Z,98538.00
2023-07-28T07:03:09.570Z,98530.00
2023-07-28T07:04:09.629Z,98535.00
2023-07-28T07:05:09.719Z,98540.00
2023-07-28T07:06:09.655Z,98537.00
2023-07-28T07:07:09.634Z,98543.00
2023-07-28T07:08:09.683Z,98545.00
2023-07-28T07:09:09.675Z,98546.00
2023-07-28T07:10:09.663Z,98542.00
2023-07-28T07:11:09.691Z,98542.00
2023-07-28T07:12:09.718Z,98546.00
2023-07-28T07:13:09.750Z,98545.00
2023-07-28T07:14:09.770Z,98543.00
2023-07-28T07:15:09.747Z,98548.00
2023-07-28T07:16:11.107Z,98547.00
2023-07-28T07:17:09.776Z,98550.00
2023-07-28T07:18:09.755Z,98549.00
2023-07-28T07:19:09.835Z,98547.00
2023-07-28T07:20:09.807Z,98551.00
2023-07-28T07:21:09.830Z,98555.00
2023-07-28T07:22:09.816Z,98553.00
2023-07-28T07:23:09.838Z,98557.00
2023-07-28T07:24:09.841Z,98553.00
2023-07-28T07:25:09.899Z,98551.00
2023-07-28T07:26:09.876Z,98556.00
2023-07-28T07:27:09.898Z,98552.00
2023-07-28T07:28:09.946Z,98555.00
2023-07-28T07:29:09.933Z,98553.00
2023-07-28T07:30:09.993Z,98554.00
2023-07-28T07:31:10.026Z,98558.00
2023-07-28T07:32:09.985Z,98555.00
2023-07-28T07:33:10.013Z,98558.00
2023-07-28T07:34:10.034Z,98554.00
2023-07-28T07:35:10.063Z,98566.00
2023-07-28T07:36:10.098Z,98563.00
2023-07-28T07:37:10.132Z,98565.00
2023-07-28T07:38:10.134Z,98572.00
2023-07-28T07:39:10.137Z,98568.00
2023-07-28T07:40:10.127Z,98573.00
2023-07-28T07:41:10.130Z,98573.00
2023-07-28T07:42:10.206Z,98573.00
2023-07-28T07:43:10.191Z,98573.00
2023-07-28T07:44:10.178Z,98579.00
2023-07-28T07:45:10.176Z,98579.00
2023-07-28T07:46:10.284Z,98576.00
2023-07-28T07:47:10.240Z,98573.00
2023-07-28T07:48:10.268Z,98576.00
2023-07-28T07:49:10.307Z,98573.00
2023-07-28T07:50:10.328Z,98576.00
2023-07-28T07:51:10.358Z,98576.00
2023-07-28T07:52:10.366Z,98577.00
2023-07-28T07:53:10.372Z,98579.00
2023-07-28T07:54:10.360Z,98580.00
2023-07-28T07:55:10.357Z,98577.00
2023-07-28T07:56:10.395Z,98589.00
2023-07-28T07:57:10.405Z,98589.00
2023-07-28T07:58:10.396Z,98587.00
2023-07-28T07:59:10.399Z,98590.00
2023-07-28T08:00:10.388Z,98588.00
2023-07-28T08:01:10.482Z,98586.00
2023-07-28T08:02:10.437Z,98587.00
2023-07-28T08:03:10.451Z,98591.00
2023-07-28T08:04:10.429Z,98594.00
2023-07-28T08:05:10.436Z,98591.00
2023-07-28T08:06:10.470Z,98589.00
2023-07-28T08:07:10.505Z,98593.00
2023-07-28T08:08:10.507Z,98600.00
2023-07-28T08:09:10.488Z,98600.00
2023-07-28T08:10:10.498Z,98601.00
2023-07-28T08:11:10.492Z,98598.00
2023-07-28T08:12:10.490Z,98601.00
2023-07-28T08:13:10.520Z,98604.00
2023-07-28T08:14:10.500Z,98603.00
2023-07-28T08:15:10.627Z,98606.00
2023-07-28T08:16:10.668Z,98601.00
2023-07-28T08:17:10.547Z,98612.00
2023-07-28T08:18:10.684Z,98610.00
2023-07-28T08:19:10.573Z,98605.00
2023-07-28T08:20:10.576Z,98608.00
2023-07-28T08:21:10.592Z,98608.00
2023-07-28T08:22:10.579Z,98608.00
2023-07-28T08:23:10.585Z,98611.00
2023-07-28T08:24:10.604Z,98608.00
2023-07-28T08:25:10.638Z,98614.00
2023-07-28T08:26:10.614Z,98609.00
2023-07-28T08:27:10.606Z,98611.00
2023-07-28T08:28:15.859Z,98617.00
2023-07-28T08:29:10.647Z,98612.00
2023-07-28T08:30:10.646Z,98614.00
2023-07-28T08:31:10.674Z,98618.00
2023-07-28T08:32:10.634Z,98612.00
2023-07-28T08:33:10.707Z,98614.00
2023-07-28T08:34:10.676Z,98616.00
2023-07-28T08:35:10.625Z,98615.00
2023-07-28T08:36:10.689Z,98610.00
2023-07-28T08:37:10.636Z,98613.00
2023-07-28T08:38:10.625Z,98609.00
2023-07-28T08:39:10.641Z,98606.00
2023-07-28T08:40:10.617Z,98609.00
2023-07-28T08:41:10.635Z,98607.00
2023-07-28T08:42:10.637Z,98607.00
2023-07-28T08:43:10.732Z,98609.00
2023-07-28T08:44:10.681Z,98613.00
2023-07-28T08:45:10.717Z,98614.00
2023-07-28T08:46:10.811Z,98614.00
2023-07-28T08:47:10.787Z,98613.00
2023-07-28T08:48:10.966Z,98612.00
2023-07-28T08:49:10.822Z,98614.00
2023-07-28T08:50:10.890Z,98618.00
2023-07-28T08:51:10.877Z,98620.00
2023-07-28T08:52:10.922Z,98622.00
2023-07-28T08:53:10.933Z,98624.00
2023-07-28T08:54:10.905Z,98620.00
2023-07-28T08:55:11.113Z,98623.00
2023-07-28T08:56:10.950Z,98625.00
2023-07-28T08:57:10.933Z,98625.00
2023-07-28T08:58:11.838Z,98631.00
2023-07-28T08:59:10.959Z,98631.00
2023-07-28T09:00:10.959Z,98627.00
2023-07-28T09:01:10.996Z,98631.00
2023-07-28T09:02:10.971Z,98632.00
2023-07-28T09:03:11.013Z,98631.00
2023-07-28T09:04:10.951Z,98634.00
2023-07-28T09:05:10.973Z,98635.00
2023-07-28T09:06:11.045Z,98636.00
2023-07-28T09:07:11.045Z,98638.00
2023-07-28T09:08:11.376Z,98638.00
2023-07-28T09:09:11.029Z,98642.00
2023-07-28T09:10:11.053Z,98647.00
2023-07-28T09:11:11.090Z,98645.00
2023-07-28T09:12:11.103Z,98646.00
2023-07-28T09:13:11.114Z,98645.00
2023-07-28T09:14:11.120Z,98644.00
2023-07-28T09:15:11.136Z,98647.00
2023-07-28T09:16:11.210Z,98642.00
2023-07-28T09:17:11.203Z,98644.00
2023-07-28T09:18:11.189Z,98647.00
2023-07-28T09:19:11.216Z,98641.00
2023-07-28T09:20:11.205Z,98649.00
2023-07-28T09:21:11.191Z,98643.00
2023-07-28T09:22:11.216Z,98645.00
2023-07-28T09:23:11.199Z,98646.00
2023-07-28T09:24:11.198Z,98638.00
2023-07-28T09:25:11.220Z,98636.00
2023-07-28T09:26:11.235Z,98641.00
2023-07-28T09:27:11.269Z,98645.00
2023-07-28T09:28:11.374Z,98636.00
2023-07-28T09:29:11.313Z,98633.00
2023-07-28T09:30:11.253Z,98624.00
2023-07-28T09:31:11.379Z,98637.00
2023-07-28T09:32:11.228Z,98631.00
2023-07-28T09:33:11.253Z,98634.00
2023-07-28T09:34:11.255Z,98633.00
2023-07-28T09:35:11.602Z,98633.00
2023-07-28T09:36:11.284Z,98630.00
2023-07-28T09:37:11.267Z,98631.00
2023-07-28T09:38:11.312Z,98635.00
2023-07-28T09:39:11.283Z,98628.00
2023-07-28T09:40:11.325Z,98632.00
2023-07-28T09:41:11.308Z,98634.00
2023-07-28T09:42:11.347Z,98637.00
2023-07-28T09:43:11.339Z,98636.00
2023-07-28T09:44:11.329Z,98636.00
2023-07-28T09:45:22.434Z,98639.00
2023-07-28T09:46:11.415Z,98635.00
2023-07-28T09:47:11.354Z,98630.00
2023-07-28T09:48:11.377Z,98633.00
2023-07-28T09:49:11.388Z,98635.00
2023-07-28T09:50:11.411Z,98638.00
2023-07-28T09:51:11.420Z,98636.00
2023-07-28T09:52:11.426Z,98634.00
2023-07-28T09:53:11.445Z,98631.00
2023-07-28T09:54:11.457Z,98629.00
2023-07-28T09:55:11.434Z,98619.00
2023-07-28T09:56:11.464Z,98618.00
2023-07-28T09:57:11.453Z,98615.00
2023-07-28T09:58:11.480Z,98621.00
2023-07-28T09:59:11.513Z,98620.00
2023-07-28T10:00:11.529Z,98620.00
2023-07-28T10:01:11.559Z,98618.00
2023-07-28T10:02:11.575Z,98618.00
2023-07-28T10:03:11.707Z,98622.00
2023-07-28T10:04:11.551Z,98619.00
2023-07-28T10:05:11.538Z,98622.00
2023-07-28T10:06:11.527Z,98625.00
2023-07-28T10:07:11.579Z,98625.00
2023-07-28T10:08:11.598Z,98622.00
2023-07-28T10:09:11.616Z,98624.00
2023-07-28T10:10:11.646Z,98623.00
2023-07-28T10:11:11.616Z,98624.00
2023-07-28T10:12:11.617Z,98626.00
2023-07-28T10:13:11.641Z,98623.00
2023-07-28T10:14:12.718Z,98627.00
2023-07-28T10:15:11.637Z,98622.00
2023-07-28T10:16:11.683Z,98627.00
2023-07-28T10:17:11.645Z,98626.00
2023-07-28T10:18:11.693Z,98630.00
2023-07-28T10:19:11.674Z,98634.00
2023-07-28T10:21:11.664Z,98638.00
2023-07-28T10:22:11.653Z,98629.00
2023-07-28T10:23:11.641Z,98637.00
2023-07-28T10:24:11.651Z,98633.00
2023-07-28T10:25:11.654Z,98632.00
2023-07-28T10:26:11.739Z,98631.00
2023-07-28T10:27:11.677Z,98627.00
2023-07-28T10:28:11.714Z,98630.00
2023-07-28T10:29:11.685Z,98631.00
2023-07-28T10:30:11.692Z,98628.00
2023-07-28T10:31:11.713Z,98626.00
2023-07-28T10:32:11.717Z,98629.00
2023-07-28T10:33:11.696Z,98632.00
2023-07-28T10:34:11.723Z,98633.00
2023-07-28T10:35:11.721Z,98630.00
2023-07-28T10:36:11.742Z,98627.00
2023-07-28T10:37:11.769Z,98632.00
2023-07-28T10:38:11.775Z,98631.00
2023-07-28T10:39:12.370Z,98633.00
2023-07-28T10:40:11.820Z,98629.00
2023-07-28T10:41:11.812Z,98627.00
2023-07-28T10:42:13.492Z,98627.00
2023-07-28T10:43:11.832Z,98632.00
2023-07-28T10:44:11.867Z,98636.00
2023-07-28T10:45:11.868Z,98649.00
2023-07-28T10:46:11.943Z,98631.00
2023-07-28T10:47:11.874Z,98648.00
2023-07-28T10:48:11.860Z,98636.00
2023-07-28T10:49:11.889Z,98638.00
2023-07-28T10:50:12.875Z,98638.00
2023-07-28T10:51:18.871Z,98638.00
2023-07-28T10:52:14.146Z,98635.00
2023-07-28T10:53:11.956Z,98637.00
2023-07-28T10:54:11.996Z,98635.00
2023-07-28T10:55:11.993Z,98634.00
2023-07-28T10:56:12.286Z,98633.00
2023-07-28T10:57:12.058Z,98636.00
2023-07-28T10:58:12.915Z,98640.00
2023-07-28T10:59:12.011Z,98636.00
2023-07-28T11:00:11.993Z,98640.00
2023-07-28T11:01:12.056Z,98639.00
2023-07-28T11:02:17.189Z,98640.00
2023-07-28T11:03:12.169Z,98639.00
2023-07-28T11:04:12.132Z,98636.00
2023-07-28T11:05:12.083Z,98636.00
2023-07-28T11:06:12.072Z,98635.00
2023-07-28T11:07:12.097Z,98635.00
2023-07-28T11:08:12.092Z,98635.00
2023-07-28T11:09:12.100Z,98631.00
2023-07-28T11:10:12.094Z,98631.00
2023-07-28T11:11:12.076Z,98629.00
2023-07-28T11:12:12.178Z,98632.00
2023-07-28T11:13:26.552Z,98631.00
2023-07-28T11:14:12.119Z,98634.00
2023-07-28T11:15:12.115Z,98631.00
2023-07-28T11:16:12.237Z,98644.00
2023-07-28T11:17:12.163Z,98645.00
2023-07-28T11:18:12.208Z,98648.00
2023-07-28T11:19:12.173Z,98638.00
2023-07-28T11:20:12.166Z,98638.00
2023-07-28T11:21:12.147Z,98637.00
2023-07-28T11:22:12.143Z,98634.00
2023-07-28T11:23:12.185Z,98639.00
2023-07-28T11:24:12.213Z,98633.00
2023-07-28T11:25:12.197Z,98638.00
2023-07-28T11:26:12.191Z,98639.00
2023-07-28T11:27:12.191Z,98641.00
2023-07-28T11:28:12.221Z,98635.00
2023-07-28T11:29:12.211Z,98635.00
2023-07-28T11:30:12.314Z,98635.00
2023-07-28T11:31:12.240Z,98635.00
2023-07-28T11:32:12.213Z,98636.00
2023-07-28T11:33:12.209Z,98642.00
2023-07-28T11:34:12.203Z,98644.00
2023-07-28T11:35:12.227Z,98647.00
2023-07-28T11:36:12.231Z,98646.00
2023-07-28T11:37:12.210Z,98638.00
2023-07-28T11:38:12.237Z,98637.00
2023-07-28T11:39:12.278Z,98636.00
2023-07-28T11:40:12.497Z,98628.00
2023-07-28T11:41:12.224Z,98638.00
2023-07-28T11:42:12.211Z,98635.00
2023-07-28T11:43:12.210Z,98634.00
2023-07-28T11:44:12.196Z,98641.00
2023-07-28T11:45:12.230Z,98643.00
2023-07-28T11:46:12.255Z,98636.00
2023-07-28T11:47:12.244Z,98635.00